• Join FlightAware (Why Join?)
  • Login
  • US Flag 
06:43PM EDT


 

Airport Tracker/Info


-or-


 

Live Flight TrackerFlight Track Log ✈ AAL1459 ✈ 07-Sep-2013 ✈ KORD - KRNO

Flight Track Log - Related Links

Times and Time Zones

All times are in EDT time to prevent confusion due to time zone crossing. See the AAL1459 flight status page for this flight to view local times or setup timezone preferences in your user account.

Time Position Orientation Groundspeed Altitude Reporting Facility
EDT Latitude Longitude Course Direction KTS MPH feet Rate Location/Type
07:09PM 41.9460 -87.9080 222° Southwest 155 178 1,600  Level FlightAware
07:10PM 41.9350 -87.9220 223° Southwest 174 200 2,200 1,620 Climbing FlightAware
07:10PM 41.9270 -87.9330 226° Southwest 191 220 2,500 1,380 Climbing FlightAware
07:10PM 41.9240 -87.9430 248° West 200 230 2,700 1,500 Climbing FlightAware
07:10PM 41.9230 -87.9530 262° West 211 243 2,900 1,620 Climbing FlightAware
07:10PM 41.9230 -87.9820 270° West 237 273 3,500 1,860 Climbing FlightAware
07:11PM 41.9220 -88.0200 268° West 258 297 4,300 2,040 Climbing FlightAware
07:11PM 41.9210 -88.0390 266° West 263 303 4,700 1,260 Climbing FlightAware
07:11PM 41.9190 -88.0710 265° West 262 302 5,000 480 Climbing FlightAware
07:12PM 41.9170 -88.0960 264° West 261 300 5,000  Level FlightAware
07:12PM 41.9140 -88.1290 263° West 259 298 5,000 300 Level FlightAware
07:12PM 41.9120 -88.1610 265° West 257 296 5,200 1,320 Climbing FlightAware
07:13PM 41.9080 -88.2000 262° West 263 303 6,000 2,400 Climbing FlightAware
07:13PM 41.9060 -88.2330 265° West 265 305 7,000 3,000 Climbing FlightAware
07:13PM 41.9020 -88.2680 261° West 266 306 8,100 2,880 Climbing FlightAware
07:14PM 41.8990 -88.3000 263° West 267 307 9,000 2,640 Climbing FlightAware
07:14PM 41.8970 -88.3270 264° West 271 312 9,700 2,760 Climbing FlightAware
07:14PM 41.8910 -88.3860 262° West 279 321 11,300 2,640 Climbing FlightAware
07:15PM 41.8860 -88.4470 264° West 288 331 12,800 2,040 Climbing FlightAware
07:16PM 41.8820 -88.5360 267° West 327 376 14,200 1,800 Climbing FlightAware
07:16PM 41.8740 -88.6140 262° West 352 405 15,400 2,040 Climbing FlightAware
07:17PM 41.8630 -88.6840 258° West 366 421 16,600 2,400 Climbing FlightAware
07:18PM 41.8510 -88.7620 258° West 373 429 18,100 2,580 Climbing FlightAware
07:18PM 41.8380 -88.8460 258° West 377 434 19,700 2,280 Climbing FlightAware
07:19PM 41.8250 -88.9330 259° West 392 451 20,900 1,860 Climbing FlightAware
07:19PM 41.8140 -89.0030 258° West 399 459 21,800 1,920 Climbing FlightAware
07:20PM 41.8000 -89.0960 259° West 407 468 23,100 1,920 Climbing FlightAware
07:21PM 41.7860 -89.1870 258° West 413 475 24,200 1,800 Climbing FlightAware
07:21PM 41.7740 -89.2780 260° West 419 482 25,300 1,740 Climbing FlightAware
07:22PM 41.7690 -89.3590 265° West 421 484 26,200 1,620 Climbing FlightAware
07:22PM 41.7650 -89.4550 267° West 426 490 27,200 1,680 Climbing FlightAware
07:23PM 41.7620 -89.5290 267° West 429 494 28,000 1,560 Climbing FlightAware
07:23PM 41.7590 -89.6230 268° West 432 497 28,900 1,500 Climbing FlightAware
07:24PM 41.7560 -89.7060 267° West 435 501 29,700 1,380 Climbing FlightAware
07:24PM 41.7510 -89.8080 266° West 440 506 30,500 1,320 Climbing FlightAware
07:25PM 41.7470 -89.9070 267° West 441 507 31,400 1,320 Climbing FlightAware
07:26PM 41.7430 -90.0020 267° West 445 512 32,100 1,200 Climbing FlightAware
07:26PM 41.7390 -90.0930 267° West 448 516 32,800 1,320 Climbing FlightAware
07:27PM 41.7420 -90.1910 272° West 444 511 33,600 1,560 Climbing FlightAware
07:27PM 41.7470 -90.2870 274° West 434 499 34,700 1,800 Climbing FlightAware
07:28PM 41.7510 -90.3730 274° West 427 491 35,700 1,500 Climbing FlightAware
07:29PM 41.7570 -90.4710 275° West 422 486 36,500 1,140 Climbing FlightAware
07:29PM 41.7630 -90.5600 275° West 421 484 37,100 780 Climbing FlightAware
07:30PM 41.7690 -90.6580 275° West 423 487 37,500 780 Climbing FlightAware
07:30PM 41.7750 -90.7440 275° West 424 488 38,000 420 Climbing FlightAware
07:31PM 41.7810 -90.8420 275° West 427 491 38,000  Level FlightAware
07:31PM 41.7860 -90.9240 275° West 426 490 38,000  Level FlightAware
07:32PM 41.7920 -91.0170 275° West 425 489 38,000  Level FlightAware
07:33PM 41.7980 -91.1150 275° West 424 488 38,000  Level FlightAware
07:33PM 41.8020 -91.1960 274° West 424 488 38,000  Level FlightAware
07:34PM 41.8080 -91.2980 275° West 423 487 38,000  Level FlightAware
07:34PM 41.8130 -91.3820 275° West 424 488 38,000  Level FlightAware
07:35PM 41.8180 -91.4750 274° West 424 488 38,000  Level FlightAware
07:36PM 41.8240 -91.5690 275° West 424 488 38,000  Level FlightAware
07:36PM 41.8290 -91.6640 274° West 424 488 38,000  Level FlightAware
07:37PM 41.8340 -91.7520 274° West 425 489 38,000  Level FlightAware
07:37PM 41.8390 -91.8450 274° West 424 488 38,000  Level FlightAware
07:38PM 41.8430 -91.9410 273° West 424 488 38,000  Level FlightAware
07:38PM 41.8480 -92.0200 275° West 424 488 38,000  Level FlightAware
07:39PM 41.8530 -92.1200 274° West 424 488 38,000  Level FlightAware
07:40PM 41.8570 -92.2050 274° West 424 488 38,000  Level FlightAware
07:40PM 41.8630 -92.3090 274° West 424 488 38,000  Level FlightAware
07:41PM 41.8660 -92.3760 273° West 424 488 38,000  Level FlightAware
07:41PM 41.8710 -92.4850 274° West 424 488 38,000  Level FlightAware
07:42PM 41.8760 -92.5810 274° West 423 487 38,000  Level FlightAware
07:43PM 41.8800 -92.6670 274° West 422 486 38,000  Level FlightAware
07:43PM 41.8840 -92.7570 273° West 423 487 38,000  Level FlightAware
07:44PM 41.8880 -92.8580 273° West 421 484 38,000  Level FlightAware
07:44PM 41.8920 -92.9410 274° West 421 484 38,000  Level FlightAware
07:45PM 41.8960 -93.0340 273° West 421 484 38,000  Level FlightAware
07:45PM 41.8979 -93.0805 273° West 423 487 38,000  Level FlightAware ADS-B
07:46PM 41.9012 -93.1613 273° West 423 487 38,000  Level FlightAware ADS-B
07:46PM 41.9045 -93.2423 273° West 424 488 38,000  Level FlightAware ADS-B
07:47PM 41.9077 -93.3222 273° West 424 488 38,000  Level FlightAware ADS-B
07:47PM 41.9109 -93.4016 273° West 423 487 38,000  Level FlightAware ADS-B
07:48PM 41.9140 -93.4807 273° West 423 487 38,000  Level FlightAware ADS-B
07:48PM 41.9171 -93.5603 273° West 423 487 38,000  Level FlightAware ADS-B
07:49PM 41.9203 -93.6410 273° West 422 486 38,000  Level FlightAware ADS-B
07:49PM 41.9231 -93.7197 273° West 421 484 38,000  Level FlightAware ADS-B
07:50PM 41.9260 -93.8013 273° West 421 484 38,000  Level FlightAware ADS-B
07:50PM 41.9289 -93.8867 273° West 421 484 38,000  Level FlightAware ADS-B
07:51PM 41.9317 -93.9656 273° West 421 484 38,000  Level FlightAware ADS-B
07:51PM 41.9345 -94.0457 273° West 422 486 38,000  Level FlightAware ADS-B
07:52PM 41.9372 -94.1250 273° West 422 486 38,000  Level FlightAware ADS-B
07:52PM 41.9398 -94.2041 273° West 423 487 38,000  Level FlightAware ADS-B
07:53PM 41.9424 -94.2832 273° West 425 489 38,000  Level FlightAware ADS-B
07:53PM 41.9448 -94.3628 272° West 426 490 38,000  Level FlightAware ADS-B
07:54PM 41.9473 -94.4435 272° West 427 491 38,000  Level FlightAware ADS-B
07:54PM 41.9497 -94.5239 272° West 427 491 38,000  Level FlightAware ADS-B
07:55PM 41.9520 -94.6038 272° West 427 491 38,000  Level FlightAware ADS-B
07:55PM 41.9543 -94.6839 272° West 427 491 38,000  Level FlightAware ADS-B
07:56PM 41.9567 -94.7636 272° West 427 491 38,000  Level FlightAware ADS-B
07:56PM 41.9589 -94.8434 272° West 427 491 38,000  Level FlightAware ADS-B
07:57PM 41.9610 -94.9232 272° West 427 491 38,000  Level FlightAware ADS-B
07:57PM 41.9629 -95.0027 272° West 426 490 38,000  Level FlightAware ADS-B
07:58PM 41.9649 -95.0835 272° West 426 490 38,000  Level FlightAware ADS-B
07:58PM 41.9669 -95.1630 272° West 425 489 38,000  Level FlightAware ADS-B
07:59PM 41.9688 -95.2419 272° West 424 488 38,000  Level FlightAware ADS-B
07:59PM 41.9707 -95.3206 272° West 423 487 38,000  Level FlightAware ADS-B
08:00PM 41.9725 -95.3994 272° West 423 487 38,000  Level FlightAware ADS-B
08:00PM 41.9742 -95.4782 272° West 422 486 38,000  Level FlightAware ADS-B
08:01PM 41.9758 -95.5564 272° West 422 486 38,000  Level FlightAware ADS-B
08:01PM 41.9775 -95.6359 272° West 422 486 38,000  Level FlightAware ADS-B
08:02PM 41.9790 -95.7180 271° West 422 486 38,000  Level FlightAware ADS-B
08:02PM 41.9804 -95.7969 271° West 422 486 38,000  Level FlightAware ADS-B
08:03PM 41.9819 -95.8757 271° West 421 484 38,000  Level FlightAware ADS-B
08:03PM 41.9834 -95.9541 272° West 421 484 38,000  Level FlightAware ADS-B
08:04PM 41.9847 -96.0333 271° West 421 484 38,000  Level FlightAware ADS-B
08:04PM 41.9859 -96.1117 271° West 422 486 38,000  Level FlightAware ADS-B
08:05PM 41.9872 -96.1940 271° West 422 486 38,000  Level FlightAware ADS-B
08:06PM 41.9884 -96.2729 271° West 422 486 38,000  Level FlightAware ADS-B
08:06PM 41.9896 -96.3532 271° West 422 486 38,000  Level FlightAware ADS-B
08:07PM 41.9907 -96.4321 271° West 424 488 38,000  Level FlightAware ADS-B
08:07PM 41.9918 -96.5125 271° West 424 488 38,000  Level FlightAware ADS-B
08:08PM 41.9927 -96.5923 271° West 425 489 38,000  Level FlightAware ADS-B
08:08PM 41.9935 -96.6722 271° West 426 490 38,000  Level FlightAware ADS-B
08:09PM 41.9944 -96.7530 271° West 427 491 38,000  Level FlightAware ADS-B
08:09PM 41.9952 -96.8340 271° West 427 491 38,000  Level FlightAware ADS-B
08:10PM 41.9960 -96.9135 271° West 428 493 38,000  Level FlightAware ADS-B
08:10PM 41.9966 -96.9977 271° West 429 494 38,000  Level FlightAware ADS-B
08:11PM 41.9972 -97.0793 271° West 429 494 38,000  Level FlightAware ADS-B
08:11PM 41.9980 -97.1853 271° West 429 494 38,000  Level FlightAware ADS-B
08:12PM 41.9987 -97.2658 271° West 428 493 38,000  Level FlightAware ADS-B
08:12PM 41.9991 -97.3474 270° West 428 493 38,000  Level FlightAware ADS-B
08:13PM 41.9995 -97.4271 270° West 427 491 38,000  Level FlightAware ADS-B
08:13PM 41.9998 -97.5063 270° West 425 489 38,000  Level FlightAware ADS-B
08:14PM 42.0000 -97.5879 270° West 425 489 38,000  Level FlightAware ADS-B
08:14PM 42.0003 -97.6683 270° West 423 487 38,000  Level FlightAware ADS-B
08:15PM 42.0005 -97.8293 270° West 422 486 38,000  Level FlightAware ADS-B
08:16PM 42.0005 -97.9084 270° West 421 484 38,000  Level FlightAware ADS-B
08:16PM 42.0005 -97.9886 270° West 421 484 38,000  Level FlightAware ADS-B
08:17PM 42.0006 -98.0732 270° West 421 484 38,000  Level FlightAware ADS-B
08:17PM 42.0005 -98.1518 270° West 421 484 38,000  Level FlightAware ADS-B
08:18PM 42.0003 -98.2303 270° West 421 484 38,000  Level FlightAware ADS-B
08:18PM 42.0000 -98.3097 270° West 422 486 38,000  Level FlightAware ADS-B
08:19PM 41.9980 -97.1120 90° East 422 486 38,000  Level FlightAware
08:20PM 41.9990 -97.1970 271° West 422 486 38,000  Level FlightAware
08:20PM 42.0000 -97.2770 271° West 422 486 38,000  Level FlightAware
08:21PM 41.9982 -98.6846 270° West 425 489 38,000  Level FlightAware ADS-B
08:21PM 41.9976 -98.7650 269° West 425 489 38,000  Level FlightAware ADS-B
08:22PM 41.9970 -98.8451 269° West 425 489 38,000  Level FlightAware ADS-B
08:23PM 41.9953 -99.0539 269° West 424 488 38,000  Level FlightAware ADS-B
08:24PM 41.9945 -99.1348 269° West 424 488 38,000  Level FlightAware ADS-B
08:24PM 41.9936 -99.2167 269° West 423 487 38,000  Level FlightAware ADS-B
08:25PM 41.9927 -99.2980 269° West 423 487 38,000  Level FlightAware ADS-B
08:25PM 41.9917 -99.3778 269° West 423 487 38,000  Level FlightAware ADS-B
08:26PM 41.9907 -99.4567 269° West 424 488 38,000  Level FlightAware ADS-B
08:26PM 41.9896 -99.5360 269° West 424 488 38,000  Level FlightAware ADS-B
08:29PM 41.9832 -99.9406 269° West 425 489 38,000  Level FlightAware ADS-B
08:30PM 41.9811 -100.0610 269° West 426 490 38,000  Level FlightAware ADS-B
08:31PM 41.9781 -100.2200 269° West 427 491 38,000  Level FlightAware ADS-B
08:31PM 41.9754 -100.3560 269° West 427 491 38,000  Level FlightAware ADS-B
08:32PM 41.9733 -100.4506 269° West 425 489 38,000  Level Denver Center
08:33PM 41.9700 -100.6031 268° West 428 493 38,000  Level Denver Center
08:34PM 41.9667 -100.7564 268° West 430 495 38,000  Level Denver Center
08:35PM 41.9633 -100.9308 269° West 424 488 38,000  Level Denver Center
08:36PM 41.9589 -101.0578 267° West 426 490 38,000  Level Denver Center
08:37PM 41.9539 -101.2561 268° West 419 482 38,000  Level Denver Center
08:42PM 41.9260 -102.1030 268° West 425 489 38,000  Level FlightAware
08:43PM 41.9230 -102.1860 267° West 427 491 38,000  Level FlightAware
08:44PM 41.9180 -102.3170 267° West 425 489 38,000  Level FlightAware
08:45PM 41.9140 -102.3970 266° West 425 489 38,000  Level FlightAware
08:45PM 41.9110 -102.4780 267° West 425 489 38,000  Level FlightAware
08:46PM 41.9060 -102.6050 267° West 424 488 38,000  Level FlightAware
08:46PM 41.9020 -102.6910 266° West 425 489 38,000  Level FlightAware
08:47PM 41.8980 -102.8010 267° West 424 488 38,000  Level FlightAware
08:48PM 41.8940 -102.9010 267° West 425 489 38,000  Level FlightAware
08:48PM 41.8880 -103.0380 267° West 426 490 38,000  Level FlightAware
08:49PM 41.8830 -103.1530 267° West 426 490 38,000  Level FlightAware
08:50PM 41.8790 -103.2340 266° West 426 490 38,000  Level FlightAware
08:50PM 41.8750 -103.3300 267° West 424 488 38,000  Level FlightAware
08:51PM 41.8700 -103.4250 266° West 423 487 38,000  Level FlightAware
08:51PM 41.8660 -103.5200 267° West 422 486 38,000  Level FlightAware
08:52PM 41.8600 -103.6400 266° West 420 483 38,000  Level FlightAware
08:53PM 41.8550 -103.7340 266° West 419 482 38,000  Level FlightAware
08:53PM 41.8500 -103.8250 266° West 419 482 38,000  Level FlightAware
08:54PM 41.8460 -103.9130 267° West 419 482 38,000  Level FlightAware
08:55PM 41.8410 -104.0060 266° West 420 483 38,000  Level FlightAware
08:55PM 41.8360 -104.0990 266° West 422 486 38,000  Level FlightAware
08:56PM 41.8310 -104.1940 266° West 422 486 38,000  Level FlightAware
08:56PM 41.8270 -104.2630 266° West 422 486 38,000  Level FlightAware
08:57PM 41.8210 -104.3700 266° West 421 484 38,000  Level FlightAware
08:57PM 41.8160 -104.4590 266° West 421 484 38,000  Level FlightAware
08:58PM 41.8110 -104.5520 266° West 420 483 38,000  Level FlightAware
08:59PM 41.8060 -104.6420 266° West 420 483 38,000  Level FlightAware
08:59PM 41.8010 -104.7260 265° West 419 482 38,000  Level FlightAware
09:00PM 41.7940 -104.8430 265° West 419 482 38,000  Level FlightAware
09:01PM 41.7880 -104.9290 265° West 420 483 38,000  Level FlightAware
09:01PM 41.7820 -105.0340 266° West 420 483 38,000  Level FlightAware
09:02PM 41.7740 -105.1670 265° West 419 482 38,000  Level FlightAware
09:03PM 41.7680 -105.2570 265° West 418 481 38,000  Level FlightAware
09:03PM 41.7620 -105.3500 265° West 418 481 38,000  Level FlightAware
09:04PM 41.7550 -105.4670 265° West 418 481 38,000  Level FlightAware
09:05PM 41.7490 -105.5510 265° West 421 484 38,000  Level FlightAware
09:05PM 41.7430 -105.6470 265° West 422 486 38,000  Level FlightAware
09:06PM 41.7360 -105.7460 265° West 424 488 38,000  Level FlightAware
09:06PM 41.7290 -105.8400 264° West 427 491 38,000  Level FlightAware
09:07PM 41.7240 -105.9240 265° West 429 494 38,000  Level FlightAware
09:08PM 41.7170 -106.0170 264° West 428 493 38,000  Level FlightAware
09:08PM 41.7100 -106.1200 265° West 422 486 38,000  Level FlightAware
09:09PM 41.7040 -106.1970 264° West 419 482 38,000  Level FlightAware
09:09PM 41.6970 -106.2940 265° West 419 482 38,000  Level FlightAware
09:10PM 41.6910 -106.3750 264° West 420 483 38,000  Level FlightAware
09:11PM 41.6840 -106.4700 264° West 420 483 38,000  Level FlightAware
09:11PM 41.6800 -106.5250 264° West 420 483 38,000  Level FlightAware
09:12PM 41.6680 -106.6800 264° West 425 489 38,000  Level FlightAware
09:12PM 41.6620 -106.7600 264° West 425 489 38,000  Level FlightAware
09:13PM 41.6550 -106.8430 264° West 425 489 38,000  Level FlightAware
09:14PM 41.6490 -106.9250 264° West 425 489 38,000  Level FlightAware
09:14PM 41.6430 -107.0050 264° West 425 489 38,000  Level FlightAware
09:15PM 41.6360 -107.0850 263° West 425 489 38,000  Level FlightAware
09:16PM 41.6300 -107.1670 264° West 425 489 38,000  Level FlightAware
09:16PM 41.6240 -107.2480 264° West 425 489 38,000  Level FlightAware
09:17PM 41.6170 -107.3280 263° West 425 489 38,000  Level FlightAware
09:17PM 41.6110 -107.4080 264° West 425 489 38,000  Level FlightAware
09:18PM 41.6050 -107.4880 264° West 425 489 38,000  Level FlightAware
09:19PM 41.5980 -107.5680 263° West 425 489 38,000  Level FlightAware
09:19PM 41.5920 -107.6480 264° West 425 489 38,000  Level FlightAware
09:20PM 41.5860 -107.7280 264° West 425 489 38,000  Level FlightAware
09:20PM 41.5790 -107.8080 263° West 425 489 38,000  Level FlightAware
09:21PM 41.5730 -107.8880 264° West 425 489 38,000 1,140 Level FlightAware
09:22PM 41.5378 -108.2528 264° West 431 496 40,000 900 Climbing Denver Center
09:23PM 41.5250 -108.4028 264° West 427 491 40,000  Level Denver Center
09:24PM 41.5089 -108.5761 263° West 423 487 40,000  Level Denver Center
09:25PM 41.4939 -108.7275 263° West 431 496 40,000  Level Denver Center
09:26PM 41.4775 -108.9039 263° West 430 495 40,000  Level Denver Center
09:27PM 41.4644 -109.0514 263° West 432 497 40,000  Level Denver Center
09:28PM 41.4403 -109.2783 262° West 438 504 40,000  Level Salt Lake Center
09:30PM 41.4253 -109.4256 262° West 428 493 40,000  Level Salt Lake Center
09:31PM 41.4075 -109.6003 262° West 427 491 40,000  Level Salt Lake Center
09:36PM 41.3170 -110.4590 262° West 432 497 40,000  Level FlightAware
09:37PM 41.3060 -110.5580 262° West 429 494 40,000  Level FlightAware
09:37PM 41.2970 -110.6310 261° West 427 491 40,000  Level FlightAware
09:37PM 41.2910 -110.6890 262° West 427 491 40,000  Level FlightAware ADS-B
09:38PM 41.2824 -110.7660 262° West 425 489 40,000  Level FlightAware ADS-B
09:38PM 41.2736 -110.8450 262° West 423 487 40,000  Level FlightAware ADS-B
09:39PM 41.2647 -110.9230 261° West 420 483 40,000  Level FlightAware ADS-B
09:40PM 41.2534 -111.0200 261° West 417 480 40,000  Level FlightAware ADS-B
09:40PM 41.2448 -111.0940 261° West 415 478 40,000  Level FlightAware ADS-B
09:41PM 41.2360 -111.1700 261° West 414 476 40,000  Level FlightAware ADS-B
09:41PM 41.2271 -111.2470 261° West 412 474 40,000  Level FlightAware ADS-B
09:42PM 41.2184 -111.3210 261° West 412 474 40,000  Level FlightAware ADS-B
09:42PM 41.2091 -111.4000 261° West 412 474 40,000  Level FlightAware ADS-B
09:43PM 41.2000 -111.4750 261° West 411 473 40,000  Level FlightAware ADS-B
09:43PM 41.1910 -111.5510 261° West 410 472 40,000  Level FlightAware ADS-B
09:44PM 41.1818 -111.6270 261° West 408 470 40,000  Level FlightAware ADS-B
09:44PM 41.1728 -111.7020 261° West 407 468 40,000  Level FlightAware ADS-B
09:45PM 41.1637 -111.7770 261° West 406 467 40,000  Level FlightAware ADS-B
09:45PM 41.1546 -111.8520 261° West 405 466 40,000  Level FlightAware ADS-B
09:46PM 41.1455 -111.9260 261° West 404 465 40,000  Level FlightAware ADS-B
09:46PM 41.1352 -112.0090 261° West 404 465 40,000  Level FlightAware ADS-B
09:47PM 41.1261 -112.0820 261° West 404 465 40,000  Level FlightAware ADS-B
09:47PM 41.1168 -112.1550 260° West 405 466 40,000  Level FlightAware ADS-B
09:48PM 41.1074 -112.2300 261° West 407 468 40,000  Level FlightAware ADS-B
09:48PM 41.0980 -112.3050 261° West 409 471 40,000  Level FlightAware ADS-B
09:49PM 41.0886 -112.3790 260° West 411 473 40,000  Level FlightAware ADS-B
09:49PM 41.0789 -112.4540 260° West 412 474 40,000  Level FlightAware ADS-B
09:50PM 41.0688 -112.5330 260° West 414 476 40,000  Level FlightAware ADS-B
09:50PM 41.0590 -112.6090 260° West 416 479 40,000  Level FlightAware ADS-B
09:51PM 41.0489 -112.6870 260° West 418 481 40,000  Level FlightAware ADS-B
09:51PM 41.0387 -112.7650 260° West 421 484 40,000  Level FlightAware ADS-B
09:52PM 41.0290 -112.8390 260° West 423 487 40,000  Level FlightAware ADS-B
09:52PM 41.0190 -112.9150 260° West 423 487 40,000  Level FlightAware ADS-B
09:53PM 41.0075 -113.0010 260° West 426 490 40,000  Level FlightAware ADS-B
09:53PM 40.9969 -113.0800 260° West 428 493 40,000  Level FlightAware ADS-B
09:54PM 40.9856 -113.1650 260° West 429 494 40,000  Level FlightAware ADS-B
09:54PM 40.9751 -113.2420 260° West 429 494 40,000  Level FlightAware ADS-B
09:55PM 40.9645 -113.3200 260° West 428 493 40,000  Level FlightAware ADS-B
09:55PM 40.9538 -113.3990 260° West 427 491 40,000  Level FlightAware ADS-B
09:56PM 40.9432 -113.4760 260° West 428 493 40,000  Level FlightAware ADS-B
09:56PM 40.9323 -113.5550 260° West 428 493 40,000  Level FlightAware ADS-B
09:57PM 40.9216 -113.6320 260° West 429 494 40,000  Level FlightAware ADS-B
09:57PM 40.9109 -113.7090 260° West 428 493 40,000  Level FlightAware ADS-B
09:58PM 40.9001 -113.7860 260° West 428 493 40,000  Level FlightAware ADS-B
09:58PM 40.8894 -113.8620 259° West 428 493 40,000  Level FlightAware ADS-B
09:59PM 40.8783 -113.9410 259° West 428 493 40,000  Level FlightAware ADS-B
09:59PM 40.8674 -114.0170 259° West 427 491 40,000  Level FlightAware ADS-B
10:00PM 40.8562 -114.0960 259° West 426 490 40,000  Level FlightAware ADS-B
10:00PM 40.8444 -114.1770 259° West 425 489 40,000  Level FlightAware ADS-B
10:01PM 40.8332 -114.2550 259° West 425 489 40,000  Level FlightAware ADS-B
10:02PM 40.8219 -114.3330 259° West 424 488 40,000  Level FlightAware ADS-B
10:02PM 40.8107 -114.4100 259° West 423 487 40,000  Level FlightAware ADS-B
10:03PM 40.7931 -114.5300 259° West 422 486 40,000  Level FlightAware ADS-B
10:03PM 40.7819 -114.6060 259° West 420 483 40,000  Level FlightAware ADS-B
10:04PM 40.7709 -114.6800 259° West 419 482 40,000  Level FlightAware ADS-B
10:04PM 40.7594 -114.7570 259° West 419 482 40,000  Level FlightAware ADS-B
10:05PM 40.7479 -114.8340 259° West 419 482 40,000  Level FlightAware ADS-B
10:05PM 40.7358 -114.9150 259° West 418 481 40,000  Level FlightAware ADS-B
10:07PM 40.7010 -115.1440 259° West 417 480 40,000  Level FlightAware ADS-B
10:07PM 40.6882 -115.2270 259° West 418 481 40,000  Level FlightAware ADS-B
10:08PM 40.6767 -115.3020 259° West 419 482 40,000  Level FlightAware ADS-B
10:08PM 40.6647 -115.3790 258° West 419 482 40,000  Level FlightAware ADS-B
10:09PM 40.6530 -115.4550 259° West 420 483 40,000  Level FlightAware ADS-B
10:10PM 40.6413 -115.5290 258° West 420 483 40,000  Level FlightAware ADS-B
10:10PM 40.6296 -115.6040 258° West 421 484 40,000  Level FlightAware ADS-B
10:11PM 40.6175 -115.6800 258° West 421 484 40,000  Level FlightAware ADS-B
10:13PM 40.5617 -116.0300 258° West 420 483 40,000  Level FlightAware ADS-B
10:13PM 40.5475 -116.1170 258° West 421 484 40,000  Level FlightAware ADS-B
10:14PM 40.5255 -116.2530 258° West 421 484 40,000  Level FlightAware ADS-B
10:15PM 40.5085 -116.3570 258° West 422 486 40,000  Level FlightAware ADS-B
10:16PM 40.4903 -116.4692 258° West 419 482 40,000  Level Oakland Center
10:16PM 40.4778 -116.5406 257° West 417 480 40,000  Level Salt Lake Center
10:17PM 40.4547 -116.6814 258° West 415 478 40,000  Level Salt Lake Center
10:23PM 40.2960 -117.6020 258° West 430 495 40,000 -60 Level FlightAware
10:24PM 40.2770 -117.7140 257° West 424 488 39,600 -300 Descending FlightAware
10:25PM 40.2610 -117.7940 255° West 424 488 39,600 -2,400 Level FlightAware
10:25PM 40.2430 -117.9010 258° West 422 486 36,600 -3,780 Descending FlightAware
10:26PM 40.2180 -117.9870 249° West 418 481 34,900 -2,760 Descending FlightAware
10:27PM 40.1810 -118.0540 234° Southwest 419 482 33,400 -1,740 Descending FlightAware
10:27PM 40.1380 -118.1290 233° Southwest 419 482 32,800 -2,340 Descending FlightAware
10:28PM 40.0910 -118.2130 234° Southwest 433 498 30,500 -3,180 Descending FlightAware
10:28PM 40.0470 -118.2900 233° Southwest 440 506 29,100 -2,280 Descending FlightAware
10:29PM 40.0030 -118.3670 233° Southwest 443 510 27,800 -2,280 Descending FlightAware
10:30PM 39.9600 -118.4430 234° Southwest 440 506 26,400 -2,340 Descending FlightAware
10:30PM 39.9210 -118.5100 233° Southwest 427 491 25,200 -2,340 Descending FlightAware
10:31PM 39.8800 -118.5830 234° Southwest 417 480 23,800 -2,340 Descending FlightAware
10:31PM 39.8380 -118.6540 232° Southwest 408 470 22,400 -2,340 Descending FlightAware
10:32PM 39.7990 -118.7220 233° Southwest 402 463 21,100 -2,400 Descending FlightAware
10:32PM 39.7620 -118.7850 233° Southwest 389 448 19,700 -2,400 Descending FlightAware
10:33PM 39.7240 -118.8520 234° Southwest 385 443 18,400 -2,340 Descending FlightAware
10:34PM 39.6870 -118.9150 233° Southwest 377 434 17,000 -2,100 Descending FlightAware
10:34PM 39.6480 -118.9820 233° Southwest 367 422 15,900 -1,020 Descending FlightAware
10:35PM 39.6170 -119.0350 233° Southwest 368 423 15,900  Level FlightAware
10:35PM 39.5780 -119.1020 233° Southwest 368 423 15,900 -120 Level FlightAware
10:36PM 39.5420 -119.1630 233° Southwest 374 430 15,800 -1,440 Descending FlightAware
10:37PM 39.5030 -119.2300 233° Southwest 370 426 14,200 -2,100 Descending FlightAware
10:37PM 39.4710 -119.2850 233° Southwest 362 417 13,400 -1,440 Descending FlightAware
10:38PM 39.4340 -119.3470 232° Southwest 360 414 12,600 -1,140 Descending FlightAware
10:38PM 39.3970 -119.4090 232° Southwest 359 413 12,100 -900 Descending FlightAware
10:39PM 39.3660 -119.4620 233° Southwest 354 407 11,600 -1,020 Descending FlightAware
10:39PM 39.3310 -119.5210 233° Southwest 333 383 11,000 -1,020 Descending FlightAware
10:40PM 39.2990 -119.5760 233° Southwest 310 357 10,400 -1,080 Descending FlightAware
10:40PM 39.2880 -119.6090 247° West 300 345 10,000 -1,200 Descending FlightAware
10:41PM 39.2830 -119.6370 257° West 292 336 9,700 -960 Descending FlightAware
10:41PM 39.2780 -119.6640 257° West 284 327 9,500 -1,080 Descending FlightAware
10:41PM 39.2760 -119.6830 262° West 283 326 9,200 -1,440 Descending FlightAware
10:41PM 39.2880 -119.7160 295° West 273 314 8,700 -1,440 Descending FlightAware
10:42PM 39.3000 -119.7280 322° Northwest 260 299 8,400 -1,200 Descending FlightAware
10:42PM 39.3080 -119.7320 339° North 252 290 8,300 -1,500 Descending FlightAware
10:42PM 39.3300 -119.7390 346° North 233 268 7,700 -1,680 Descending FlightAware
10:42PM 39.3440 -119.7470 336° Northwest 217 250 7,300 -1,560 Descending FlightAware
10:43PM 39.3630 -119.7550 342° North 193 222 6,800 -1,080 Descending FlightAware
10:43PM 39.3770 -119.7600 345° North 171 197 6,600 -720 Descending FlightAware
10:43PM 39.3890 -119.7630 349° North 167 192 6,400 -1,020 Descending FlightAware
10:44PM 39.4050 -119.7660 352° North 164 189 6,000 -1,080 Descending FlightAware
10:44PM 39.4200 -119.7680 354° North 169 194 5,700 -900 Descending FlightAware
10:44PM 39.4360 -119.7690 357° North 158 182 5,400 -840 Descending FlightAware
10:45PM 39.4520 -119.7690 360° North 159 183 5,100 -840 Descending FlightAware
10:45PM 39.4620 -119.7690 360° North 159 183 4,900 -960 Descending FlightAware
10:45PM 39.4760 -119.7690 360° North 160 184 4,600 -900 Descending FlightAware
10:46PM 39.4930 -119.7690 360° North 160 184 4,300 -780 Descending FlightAware